Time;durP1;ratioP1;P1;durP2;ratioP2;P2;SDS_P1;SDS_P2;PMS_P1;PMS_P2;Temp;Humidity;BMP_temperature;BMP_pressure;BME280_temperature;BME280_humidity;BME280_pressure;Samples;Min_cycle;Max_cycle;Signal;HPM_P1;HPM_P2
2021/11/04 00:03:19;;;;;;;14.50;8.70;;;;;;;8.69;74.77;97622.61;235569;1193;25611;-76
2021/11/04 00:08:23;;;;;;;15.50;10.00;;;;;;;8.67;75.09;97618.11;235900;1193;23972;-77
2021/11/04 00:13:25;;;;;;;14.40;8.40;;;;;;;8.64;75.31;97616.38;235684;1193;24151;-77
2021/11/04 00:18:29;;;;;;;13.60;8.40;;;;;;;8.61;75.46;97607.38;235803;1199;24060;-76
2021/11/04 00:23:51;;;;;;;13.70;9.10;;;;;;;8.57;75.73;97599.98;235524;1193;22516;-74
2021/11/04 00:28:56;;;;;;;12.40;7.70;;;;;;;8.55;76.05;97596.92;235710;1193;24031;-75
2021/11/04 00:33:59;;;;;;;13.30;7.00;;;;;;;8.51;75.92;97591.48;235809;1192;24162;-76
2021/11/04 00:39:07;;;;;;;12.00;7.90;;;;;;;8.49;76.02;97590.18;235874;1193;24047;-73
2021/11/04 00:44:10;;;;;;;11.10;7.00;;;;;;;8.49;76.20;97581.55;235947;1187;24172;-75
2021/11/04 00:49:13;;;;;;;8.40;5.80;;;;;;;8.48;76.38;97572.76;235562;1199;24060;-75
2021/11/04 00:54:19;;;;;;;10.00;5.50;;;;;;;8.46;76.48;97548.61;235344;1194;22451;-76
2021/11/04 00:59:21;;;;;;;9.10;6.30;;;;;;;8.48;76.66;97548.64;235331;1177;24473;-76
2021/11/04 01:04:25;;;;;;;10.00;6.70;;;;;;;8.50;76.88;97549.71;235333;1199;22905;-74
2021/11/04 01:09:28;;;;;;;11.10;7.00;;;;;;;8.51;76.99;97539.55;235687;1199;22448;-73
2021/11/04 01:14:31;;;;;;;12.00;6.00;;;;;;;8.56;77.13;97538.45;235686;1199;23633;-73
2021/11/04 01:19:34;;;;;;;9.20;6.60;;;;;;;8.60;77.19;97532.76;235420;1199;24002;-77
2021/11/04 01:24:37;;;;;;;12.70;6.10;;;;;;;8.62;77.25;97523.70;235653;1192;25176;-75
2021/11/04 01:29:40;;;;;;;8.60;6.30;;;;;;;8.63;77.40;97523.86;235483;1199;24027;-75
2021/11/04 01:34:43;;;;;;;11.20;7.20;;;;;;;8.67;77.35;97523.02;235505;1199;23989;-76
2021/11/04 01:39:48;;;;;;;10.50;7.20;;;;;;;8.70;77.44;97526.24;235587;1199;24078;-73
2021/11/04 01:44:56;;;;;;;;;;;;;;;8.72;77.56;97519.10;235805;1191;24142;-77
2021/11/04 01:50:15;;;;;;;10.20;6.30;;;;;;;8.72;77.63;97502.10;235773;1199;24047;-75
2021/11/04 01:55:32;;;;;;;9.40;6.80;;;;;;;8.75;77.67;97480.04;235534;1193;24108;-75
2021/11/04 02:00:35;;;;;;;7.50;5.90;;;;;;;8.77;77.59;97460.60;235660;1185;25193;-75
2021/11/04 02:05:59;;;;;;;7.90;5.20;;;;;;;8.78;77.73;97442.00;235692;1193;25269;-76
2021/11/04 02:11:16;;;;;;;11.90;7.10;;;;;;;8.76;77.63;97436.13;235573;1192;22444;-75
2021/11/04 02:16:20;;;;;;;11.10;6.40;;;;;;;8.74;77.74;97435.12;235290;1192;24037;-76
2021/11/04 02:21:57;;;;;;;9.30;6.70;;;;;;;8.72;77.85;97425.75;235394;1200;24015;-76
2021/11/04 02:27:21;;;;;;;9.00;6.50;;;;;;;8.71;77.92;97416.98;235469;1193;22436;-75
2021/11/04 02:32:37;;;;;;;9.90;6.50;;;;;;;8.73;78.01;97409.13;235301;1200;24247;-74
2021/11/04 02:38:01;;;;;;;7.20;5.40;;;;;;;8.76;78.04;97402.27;235448;1193;22468;-73
2021/11/04 02:43:04;;;;;;;7.50;5.50;;;;;;;8.81;77.94;97388.09;235857;1199;23951;-73
2021/11/04 02:48:08;;;;;;;10.60;6.70;;;;;;;8.84;77.95;97382.77;235577;1198;22987;-76
2021/11/04 02:53:15;;;;;;;7.60;5.70;;;;;;;8.80;77.99;97392.91;235489;1195;24088;-75
2021/11/04 02:58:19;;;;;;;8.70;6.00;;;;;;;8.78;78.02;97390.67;235483;1193;22444;-75
2021/11/04 03:03:22;;;;;;;9.20;6.50;;;;;;;8.80;78.03;97378.71;235236;1193;25194;-75
2021/11/04 03:08:31;;;;;;;8.20;5.60;;;;;;;8.83;78.13;97382.47;235664;1199;22453;-76
2021/11/04 03:13:35;;;;;;;7.10;5.60;;;;;;;8.90;77.96;97369.49;235485;1199;23999;-75
2021/11/04 03:18:43;;;;;;;12.60;7.30;;;;;;;8.96;77.93;97360.93;235496;1199;24586;-75
2021/11/04 03:24:01;;;;;;;7.80;5.90;;;;;;;8.99;77.88;97357.22;235544;1193;24097;-75
2021/11/04 03:29:05;;;;;;;8.60;6.80;;;;;;;9.02;77.79;97353.25;235420;1199;26124;-76
2021/11/04 03:34:09;;;;;;;10.20;7.00;;;;;;;9.06;77.78;97342.59;235739;1199;24050;-79
2021/11/04 03:39:13;;;;;;;8.60;6.60;;;;;;;9.07;77.81;97358.12;235770;1199;24555;-73
2021/11/04 03:44:19;;;;;;;8.20;6.50;;;;;;;9.09;77.77;97360.73;235411;1199;22893;-76
2021/11/04 03:49:24;;;;;;;9.30;6.70;;;;;;;9.13;77.72;97346.93;235372;1199;25318;-74
2021/11/04 03:54:28;;;;;;;9.30;5.70;;;;;;;9.15;77.73;97338.01;235346;1177;24078;-73
2021/11/04 03:59:30;;;;;;;7.30;5.60;;;;;;;9.16;77.76;97328.67;235402;1199;25139;-73
2021/11/04 04:04:33;;;;;;;6.90;5.80;;;;;;;9.21;77.80;97318.37;235540;1199;24072;-76
2021/11/04 04:09:43;;;;;;;9.30;6.50;;;;;;;9.23;77.74;97310.89;235271;1199;24084;-75
2021/11/04 04:15:06;;;;;;;;;;;;;;;9.25;77.74;97305.41;235453;1199;25173;-77
2021/11/04 04:20:10;;;;;;;9.00;6.10;;;;;;;9.26;77.89;97291.23;235137;1200;24020;-75
2021/11/04 04:25:13;;;;;;;6.80;5.60;;;;;;;9.21;78.02;97280.74;235555;1199;24013;-73
2021/11/04 04:30:16;;;;;;;9.60;6.20;;;;;;;9.15;78.23;97264.81;235374;1183;25319;-73
2021/11/04 04:35:19;;;;;;;9.20;6.50;;;;;;;9.09;78.37;97247.84;235724;1199;22427;-77
2021/11/04 04:40:22;;;;;;;7.70;5.60;;;;;;;9.03;78.57;97237.20;235428;1198;22447;-75
2021/11/04 04:45:26;;;;;;;7.50;5.60;;;;;;;8.97;78.78;97223.68;235445;1199;24085;-75
2021/11/04 04:50:37;;;;;;;5.80;4.30;;;;;;;8.93;79.06;97214.16;235543;1199;22533;-75
2021/11/04 04:55:47;;;;;;;6.50;5.50;;;;;;;8.86;79.20;97214.35;235279;1193;24101;-76
2021/11/04 05:00:50;;;;;;;7.60;5.80;;;;;;;8.83;79.53;97205.82;235620;1199;24184;-76
2021/11/04 05:05:53;;;;;;;8.00;6.20;;;;;;;8.80;79.57;97196.02;235666;1193;24075;-77
2021/11/04 05:10:55;;;;;;;8.10;5.90;;;;;;;8.78;79.77;97177.89;235316;1193;24082;-75
2021/11/04 05:16:00;;;;;;;7.70;5.50;;;;;;;8.74;79.95;97170.20;235981;1199;25197;-75
2021/11/04 05:21:09;;;;;;;8.60;5.70;;;;;;;8.68;80.10;97156.36;235686;1193;24085;-75
2021/11/04 05:26:26;;;;;;;8.60;5.50;;;;;;;8.59;80.23;97152.30;235344;1199;25297;-75
2021/11/04 05:31:37;;;;;;;6.90;5.30;;;;;;;8.50;80.47;97145.83;235477;1187;24072;-76
2021/11/04 05:36:40;;;;;;;7.80;5.50;;;;;;;8.44;80.73;97140.65;235780;1199;24545;-74
2021/11/04 05:41:43;;;;;;;8.50;5.50;;;;;;;8.41;80.77;97149.89;235898;1198;26134;-74
2021/11/04 05:46:46;;;;;;;7.50;5.10;;;;;;;8.39;80.96;97146.26;235203;1200;22988;-76
2021/11/04 05:51:49;;;;;;;9.20;5.80;;;;;;;8.38;81.12;97144.73;235144;1200;24056;-75
2021/11/04 05:57:02;;;;;;;7.10;5.40;;;;;;;8.37;81.15;97148.23;235274;1200;22436;-76
2021/11/04 06:02:06;;;;;;;8.30;5.50;;;;;;;8.39;81.20;97148.17;235394;1184;24055;-75
2021/11/04 06:07:09;;;;;;;6.70;5.20;;;;;;;8.41;81.15;97152.11;235519;1185;24088;-74
2021/11/04 06:12:12;;;;;;;7.60;5.10;;;;;;;8.42;81.31;97144.52;235452;1199;22419;-75
2021/11/04 06:17:28;;;;;;;7.00;4.80;;;;;;;8.45;81.20;97126.36;235218;1193;24057;-75
2021/11/04 06:22:33;;;;;;;7.70;5.60;;;;;;;8.51;81.15;97124.14;235063;1200;24113;-75
2021/11/04 06:27:48;;;;;;;7.30;5.30;;;;;;;8.56;81.30;97123.30;235542;1193;26213;-75
2021/11/04 06:33:11;;;;;;;7.50;5.60;;;;;;;8.60;81.19;97133.13;235289;1187;24127;-75
2021/11/04 06:38:14;;;;;;;8.80;5.60;;;;;;;8.66;81.33;97138.36;235271;1177;24594;-75
2021/11/04 06:43:18;;;;;;;7.70;5.70;;;;;;;8.72;81.27;97133.52;235688;1193;24072;-74
2021/11/04 06:48:48;;;;;;;10.30;6.20;;;;;;;8.80;81.22;97139.08;236520;1199;24727;-74
2021/11/04 06:54:07;;;;;;;8.70;6.40;;;;;;;8.90;81.07;97134.09;236012;1193;22443;-76
2021/11/04 06:59:24;;;;;;;10.90;6.90;;;;;;;9.02;81.11;97127.21;236217;1199;22628;-75
2021/11/04 07:04:41;;;;;;;10.20;6.40;;;;;;;9.12;80.99;97119.59;236139;1184;22492;-74
2021/11/04 07:09:43;;;;;;;8.40;6.10;;;;;;;9.19;80.98;97118.90;236145;1198;23671;-72
2021/11/04 07:14:47;;;;;;;10.90;6.80;;;;;;;9.28;81.04;97115.57;235688;1199;22818;-75
2021/11/04 07:19:49;;;;;;;9.80;6.60;;;;;;;9.35;81.16;97100.59;236008;1194;22687;-75
2021/11/04 07:25:10;;;;;;;8.40;6.30;;;;;;;9.40;81.17;97086.70;236077;1192;23995;-74
2021/11/04 07:30:27;;;;;;;9.70;6.40;;;;;;;9.45;81.09;97078.23;236366;1198;22427;-78
2021/11/04 07:35:35;;;;;;;9.00;6.60;;;;;;;9.49;81.21;97065.77;236085;1192;22445;-76
2021/11/04 07:40:39;;;;;;;8.20;6.20;;;;;;;9.52;81.16;97054.29;236089;1192;25189;-77
2021/11/04 07:45:41;;;;;;;11.30;8.10;;;;;;;9.59;81.18;97051.71;236106;1192;24111;-74
2021/11/04 07:50:48;;;;;;;10.30;7.50;;;;;;;9.69;81.17;97050.36;235714;1199;22484;-73
2021/11/04 07:55:54;;;;;;;7.60;5.90;;;;;;;9.81;81.30;97042.40;235838;1192;24150;-74
2021/11/04 08:00:57;;;;;;;8.00;5.50;;;;;;;9.97;81.27;97036.11;236292;1199;22510;-74
2021/11/04 08:06:00;;;;;;;9.90;6.50;;;;;;;10.18;81.19;97035.54;236206;1193;25198;-74
2021/11/04 08:11:03;;;;;;;7.90;5.90;;;;;;;10.41;81.21;97044.02;235736;1199;24152;-74
2021/11/04 08:16:07;;;;;;;10.80;5.80;;;;;;;10.65;80.86;97037.90;235901;1192;22852;-71
2021/11/04 08:21:13;;;;;;;9.20;6.30;;;;;;;10.89;80.55;97029.24;236135;1192;22431;-74
2021/11/04 08:26:16;;;;;;;8.60;6.10;;;;;;;11.09;80.23;97020.94;235779;1193;24107;-74
2021/11/04 08:31:19;;;;;;;8.70;6.60;;;;;;;11.28;79.88;97013.34;235262;1192;23992;-71
2021/11/04 08:36:22;;;;;;;7.70;5.20;;;;;;;11.47;79.50;96997.45;236047;1192;24085;-73
2021/11/04 08:41:26;;;;;;;10.60;7.30;;;;;;;11.63;79.15;96983.42;235659;1199;22667;-75
2021/11/04 08:46:34;;;;;;;9.30;5.80;;;;;;;11.82;79.30;96980.67;236133;1199;24126;-73
2021/11/04 08:51:55;;;;;;;9.90;6.50;;;;;;;12.11;79.05;96987.11;236065;1184;24095;-71
2021/11/04 08:57:00;;;;;;;11.60;6.80;;;;;;;12.39;78.52;96983.24;236223;1192;25708;-71
2021/11/04 09:02:04;;;;;;;9.00;6.20;;;;;;;12.65;78.26;96990.41;236152;1193;25105;-72
2021/11/04 09:07:09;;;;;;;10.50;6.10;;;;;;;12.92;77.94;96983.26;236183;1192;26812;-72
2021/11/04 09:12:14;;;;;;;9.50;6.70;;;;;;;13.16;77.54;96976.13;236098;1192;24203;-71
2021/11/04 09:17:18;;;;;;;7.50;5.90;;;;;;;13.35;77.27;96978.48;236062;1192;22596;-72
2021/11/04 09:22:21;;;;;;;7.90;6.00;;;;;;;13.69;77.16;96975.17;236096;1193;24162;-71
2021/11/04 09:27:24;;;;;;;7.50;5.00;;;;;;;14.24;76.86;96970.70;235914;1193;22547;-73
2021/11/04 09:32:27;;;;;;;7.30;5.20;;;;;;;14.66;75.68;96969.79;236028;1192;24043;-72
2021/11/04 09:37:32;;;;;;;8.00;5.30;;;;;;;14.85;74.64;96977.34;236099;1194;22452;-73
2021/11/04 09:42:37;;;;;;;6.30;4.40;;;;;;;14.90;73.83;96970.80;235873;1199;24008;-72
2021/11/04 09:47:40;;;;;;;6.10;4.50;;;;;;;14.93;73.19;96959.52;236217;1193;25201;-73
2021/11/04 09:52:44;;;;;;;6.10;4.10;;;;;;;14.85;72.52;96945.61;235978;1198;22551;-72
2021/11/04 09:57:48;;;;;;;6.90;4.60;;;;;;;14.78;72.34;96945.88;235858;1193;24152;-73
2021/11/04 10:03:08;;;;;;;8.00;4.70;;;;;;;14.78;72.36;96936.64;236085;1193;24599;-75
2021/11/04 10:08:14;;;;;;;7.20;4.20;;;;;;;14.84;72.01;96931.35;236118;1193;24190;-74
2021/11/04 10:13:17;;;;;;;10.20;4.90;;;;;;;14.98;71.93;96928.80;236178;1198;24060;-75
2021/11/04 10:18:21;;;;;;;7.00;4.80;;;;;;;15.14;71.59;96932.04;235670;1193;24041;-74
2021/11/04 10:23:26;;;;;;;7.90;4.90;;;;;;;15.21;70.95;96933.98;235943;1191;24027;-72
2021/11/04 10:28:31;;;;;;;8.70;5.50;;;;;;;15.27;70.82;96935.81;236156;1192;24018;-74
2021/11/04 10:33:37;;;;;;;8.40;4.80;;;;;;;15.33;70.40;96936.30;236219;1199;24090;-72
2021/11/04 10:38:46;;;;;;;10.00;5.50;;;;;;;15.35;70.10;96942.27;236101;1199;24088;-74
2021/11/04 10:43:52;;;;;;;6.20;4.50;;;;;;;15.36;69.91;96945.67;236172;1199;22529;-74
2021/11/04 10:49:00;;;;;;;7.00;5.10;;;;;;;15.42;69.94;96949.22;236025;1199;24586;-76
2021/11/04 10:54:12;;;;;;;11.10;6.50;;;;;;;15.53;69.67;96958.39;235742;1197;23173;-73
2021/11/04 10:59:17;;;;;;;13.40;6.90;;;;;;;15.54;69.47;96950.55;236058;1192;24126;-75
2021/11/04 11:04:42;;;;;;;8.40;6.30;;;;;;;15.64;69.65;96948.80;235937;1184;22454;-75
2021/11/04 11:10:09;;;;;;;7.30;3.10;;;;;;;15.85;69.61;96939.99;235880;1192;22462;-73
2021/11/04 11:15:15;;;;;;;4.30;2.60;;;;;;;16.15;69.57;96937.48;235738;1199;24171;-75
2021/11/04 11:20:19;;;;;;;4.80;2.80;;;;;;;16.43;69.15;96939.77;235868;1199;22474;-74
2021/11/04 11:25:21;;;;;;;4.20;2.00;;;;;;;16.63;68.92;96937.39;235549;1199;24579;-75
2021/11/04 11:30:24;;;;;;;2.10;1.50;;;;;;;16.78;68.53;96936.90;235757;1199;24146;-78
2021/11/04 11:35:29;;;;;;;2.90;1.30;;;;;;;16.86;68.10;96943.30;235896;1192;24187;-76
2021/11/04 11:41:00;;;;;;;2.50;1.70;;;;;;;16.90;67.79;96954.64;235821;1195;22466;-76
2021/11/04 11:46:03;;;;;;;3.40;1.80;;;;;;;16.76;66.76;96981.38;235919;1199;22561;-76
2021/11/04 11:51:06;;;;;;;2.20;1.50;;;;;;;16.47;67.20;96996.02;235203;1192;22449;-75
2021/11/04 11:56:23;;;;;;;2.80;2.30;;;;;;;16.24;67.95;96978.55;236028;1199;24206;-80
2021/11/04 12:01:45;;;;;;;3.60;1.50;;;;;;;16.07;70.07;97034.39;235380;1199;22905;-77
2021/11/04 12:07:28;;;;;;;3.30;2.50;;;;;;;15.15;77.07;97069.09;236263;1193;23093;-76
2021/11/04 12:12:43;;;;;;;1.60;1.40;;;;;;;14.17;79.00;97107.14;235795;1193;24971;-75
2021/11/04 12:18:11;;;;;;;2.00;1.60;;;;;;;13.40;78.43;97131.20;236000;1199;25151;-72
2021/11/04 12:23:17;;;;;;;3.10;1.80;;;;;;;12.95;79.50;97136.45;236027;1192;24033;-75
2021/11/04 12:28:19;;;;;;;2.50;1.90;;;;;;;12.88;80.31;97144.95;235927;1199;25269;-75
2021/11/04 12:33:22;;;;;;;2.30;1.80;;;;;;;13.04;79.29;97148.96;235951;1199;25281;-74
2021/11/04 12:38:43;;;;;;;2.70;1.60;;;;;;;13.15;78.57;97151.63;235972;1198;25231;-76
2021/11/04 12:43:50;;;;;;;1.80;1.30;;;;;;;13.16;76.83;97165.42;235697;1183;22413;-77
2021/11/04 12:48:59;;;;;;;3.60;2.00;;;;;;;13.22;76.22;97188.45;235916;1193;22420;-73
2021/11/04 12:54:11;;;;;;;2.00;1.40;;;;;;;13.26;74.84;97196.01;236015;1193;23096;-75
2021/11/04 12:59:29;;;;;;;3.40;2.30;;;;;;;13.20;71.30;97204.83;236174;1199;22464;-74
2021/11/04 13:04:35;;;;;;;2.40;1.30;;;;;;;13.01;70.45;97214.16;236119;1199;24222;-75
2021/11/04 13:09:46;;;;;;;2.70;1.60;;;;;;;12.84;70.67;97224.45;236520;1193;22465;-75
2021/11/04 13:14:57;;;;;;;2.40;1.70;;;;;;;12.77;70.62;97234.60;235815;1195;25279;-77
2021/11/04 13:20:08;;;;;;;1.50;1.40;;;;;;;12.71;69.39;97277.27;236046;1199;22442;-76
2021/11/04 13:25:13;;;;;;;;;;;;;;;12.51;68.35;97309.61;236411;1193;24213;-73
2021/11/04 13:30:16;;;;;;;2.90;1.90;;;;;;;12.10;68.38;97320.13;236246;1199;24225;-76
2021/11/04 13:35:45;;;;;;;3.10;1.70;;;;;;;11.73;69.49;97335.81;236473;1199;22457;-75
2021/11/04 13:40:54;;;;;;;2.50;2.10;;;;;;;11.51;69.67;97335.66;236358;1184;24090;-76
2021/11/04 13:46:10;;;;;;;3.20;2.50;;;;;;;11.20;70.07;97341.30;235775;1200;22555;-74
2021/11/04 13:51:36;;;;;;;3.10;2.30;;;;;;;10.90;70.54;97347.32;235529;1193;24142;-74
2021/11/04 13:56:48;;;;;;;3.20;2.10;;;;;;;10.75;71.28;97346.75;235701;1199;22423;-75
2021/11/04 14:01:52;;;;;;;3.60;2.40;;;;;;;10.67;71.40;97368.95;235746;1199;24108;-76
2021/11/04 14:06:54;;;;;;;4.10;2.20;;;;;;;10.52;71.78;97395.50;235955;1193;22433;-75
2021/11/04 14:12:11;;;;;;;3.70;2.90;;;;;;;10.45;72.00;97408.86;236005;1199;22512;-75
2021/11/04 14:17:23;;;;;;;2.50;2.10;;;;;;;10.46;72.01;97421.45;235750;1199;24063;-76
2021/11/04 14:22:26;;;;;;;2.20;1.80;;;;;;;10.39;72.23;97439.68;235713;1193;23972;-74
2021/11/04 14:27:29;;;;;;;28.70;18.90;;;;;;;10.28;71.74;97453.63;235461;1199;24142;-75
2021/11/04 14:32:33;;;;;;;9.20;5.30;;;;;;;10.09;71.91;97456.73;236352;1192;22463;-75
2021/11/04 14:37:36;;;;;;;11.00;6.90;;;;;;;9.88;72.11;97451.27;235401;1193;25338;-76
2021/11/04 14:42:40;;;;;;;2.60;1.80;;;;;;;9.69;72.17;97464.34;235584;1177;25202;-72
2021/11/04 14:47:43;;;;;;;5.10;3.20;;;;;;;9.49;72.41;97467.98;235891;1193;22498;-72
2021/11/04 14:52:54;;;;;;;2.40;1.60;;;;;;;9.31;72.78;97456.76;235711;1193;24152;-73
2021/11/04 14:57:58;;;;;;;2.80;1.50;;;;;;;9.14;73.00;97466.69;235903;1193;24152;-74
2021/11/04 15:03:02;;;;;;;2.80;1.40;;;;;;;9.04;73.44;97480.48;235982;1193;24076;-72
2021/11/04 15:08:05;;;;;;;2.50;1.80;;;;;;;8.97;73.56;97493.58;235331;1200;25532;-74
2021/11/04 15:13:13;;;;;;;4.80;2.10;;;;;;;8.93;73.72;97506.98;235761;1199;22447;-73
2021/11/04 15:18:18;;;;;;;3.20;1.70;;;;;;;8.89;73.79;97517.63;235633;1199;22968;-74
2021/11/04 15:23:21;;;;;;;3.20;2.20;;;;;;;8.85;73.94;97530.26;235211;1200;22497;-74
2021/11/04 15:28:24;;;;;;;3.50;3.00;;;;;;;8.77;74.10;97529.92;235984;1192;24180;-74
2021/11/04 15:33:28;;;;;;;4.30;2.80;;;;;;;8.66;74.28;97527.38;235188;1185;24118;-72
2021/11/04 15:38:30;;;;;;;5.50;2.90;;;;;;;8.57;74.38;97523.48;235600;1199;22424;-72
2021/11/04 15:43:33;;;;;;;6.60;4.30;;;;;;;8.46;74.88;97530.21;235155;1200;22591;-74
2021/11/04 15:48:50;;;;;;;4.80;3.40;;;;;;;8.35;74.85;97533.95;235298;1200;24057;-73
2021/11/04 15:54:27;;;;;;;4.80;4.20;;;;;;;8.29;74.99;97543.70;235300;1195;24034;-72
2021/11/04 15:59:50;;;;;;;6.20;3.60;;;;;;;8.24;75.31;97554.02;235221;1200;24127;-74
2021/11/04 16:04:57;;;;;;;7.90;4.40;;;;;;;8.21;75.00;97565.30;235838;1199;25128;-74
2021/11/04 16:10:00;;;;;;;6.40;3.40;;;;;;;8.17;75.08;97582.13;235304;1200;24191;-75
2021/11/04 16:15:04;;;;;;;4.80;3.10;;;;;;;8.13;75.00;97597.55;235698;1199;22422;-74
2021/11/04 16:20:07;;;;;;;4.50;2.80;;;;;;;8.08;74.93;97613.02;235161;1200;24017;-73
2021/11/04 16:25:10;;;;;;;3.90;2.50;;;;;;;8.01;74.82;97617.79;235273;1193;22448;-74
2021/11/04 16:30:13;;;;;;;3.80;2.80;;;;;;;7.97;75.03;97625.41;235270;1193;22867;-72
2021/11/04 16:35:16;;;;;;;8.60;3.80;;;;;;;7.91;74.91;97647.18;235893;1193;24125;-74
2021/11/04 16:40:22;;;;;;;5.70;3.60;;;;;;;7.86;74.99;97648.14;235219;1200;24631;-74
2021/11/04 16:45:26;;;;;;;4.90;3.20;;;;;;;7.83;75.25;97660.14;235436;1200;25748;-75
2021/11/04 16:50:35;;;;;;;4.90;3.70;;;;;;;7.80;75.38;97664.33;235670;1199;24056;-74
2021/11/04 16:55:42;;;;;;;11.40;6.20;;;;;;;7.76;75.33;97682.40;235853;1199;23110;-74
2021/11/04 17:00:44;;;;;;;5.00;2.80;;;;;;;7.69;75.42;97692.67;235910;1191;22447;-74
2021/11/04 17:05:48;;;;;;;5.20;3.20;;;;;;;7.64;75.19;97701.98;235776;1199;22467;-72
2021/11/04 17:10:51;;;;;;;6.10;3.50;;;;;;;7.59;75.56;97708.85;235964;1193;24184;-74
2021/11/04 17:15:55;;;;;;;43.60;30.20;;;;;;;7.57;75.73;97716.36;235987;1199;24174;-74
2021/11/04 17:20:57;;;;;;;6.50;4.70;;;;;;;7.62;75.69;97726.80;235926;1199;25116;-72
2021/11/04 17:26:01;;;;;;;5.00;2.60;;;;;;;7.59;75.39;97732.30;235747;1199;22424;-75
2021/11/04 17:31:04;;;;;;;5.60;3.40;;;;;;;7.53;75.50;97738.73;235674;1199;22522;-72
2021/11/04 17:36:09;;;;;;;9.50;3.50;;;;;;;7.54;75.68;97740.27;235836;1199;24152;-74
2021/11/04 17:41:12;;;;;;;6.30;3.20;;;;;;;7.57;75.57;97744.95;235544;1200;22548;-74
2021/11/04 17:46:19;;;;;;;5.60;3.20;;;;;;;7.60;75.69;97748.70;235410;1200;24103;-74
2021/11/04 17:51:24;;;;;;;5.70;2.90;;;;;;;7.62;75.53;97759.54;235653;1200;22447;-74
2021/11/04 17:56:28;;;;;;;3.70;2.90;;;;;;;7.60;75.48;97756.70;235252;1194;24057;-74
2021/11/04 18:01:31;;;;;;;5.30;3.10;;;;;;;7.60;75.37;97753.02;235164;1200;22571;-74
2021/11/04 18:06:37;;;;;;;4.40;2.90;;;;;;;7.60;75.35;97770.45;235349;1200;24072;-73
2021/11/04 18:11:41;;;;;;;3.60;2.40;;;;;;;7.62;75.04;97780.02;235546;1200;22499;-72
2021/11/04 18:16:45;;;;;;;4.40;2.40;;;;;;;7.64;74.65;97778.69;235460;1200;22396;-75
2021/11/04 18:21:48;;;;;;;2.90;2.20;;;;;;;7.66;74.53;97772.43;235827;1199;24172;-74
2021/11/04 18:27:03;;;;;;;5.00;2.60;;;;;;;7.66;74.46;97770.52;235686;1199;25281;-74
2021/11/04 18:32:20;;;;;;;3.60;2.50;;;;;;;7.61;74.31;97771.98;235787;1199;24075;-75
2021/11/04 18:37:23;;;;;;;2.90;2.20;;;;;;;7.59;74.36;97780.39;235949;1199;22642;-75
2021/11/04 18:42:28;;;;;;;4.40;2.50;;;;;;;7.61;74.04;97777.58;236057;1198;24228;-75
2021/11/04 18:47:31;;;;;;;4.90;2.00;;;;;;;7.64;73.77;97789.36;236063;1193;22490;-72
2021/11/04 18:52:34;;;;;;;3.70;2.10;;;;;;;7.68;73.48;97788.28;235756;1199;24040;-75
2021/11/04 18:57:37;;;;;;;3.40;2.00;;;;;;;7.69;73.35;97793.59;235665;1193;25219;-73
2021/11/04 19:02:40;;;;;;;4.10;2.10;;;;;;;7.67;73.29;97802.04;235389;1199;24209;-75
2021/11/04 19:07:46;;;;;;;3.60;1.80;;;;;;;7.67;73.27;97816.59;235894;1199;24930;-74
2021/11/04 19:12:50;;;;;;;3.00;2.20;;;;;;;7.71;73.25;97827.85;236003;1192;24068;-73
2021/11/04 19:17:58;;;;;;;5.70;2.20;;;;;;;7.71;73.00;97839.67;235563;1199;25158;-74
2021/11/04 19:23:01;;;;;;;3.40;1.90;;;;;;;7.69;72.98;97848.83;236130;1199;22504;-74
2021/11/04 19:28:04;;;;;;;4.30;2.50;;;;;;;7.67;73.12;97862.56;235863;1198;22447;-72
2021/11/04 19:33:08;;;;;;;4.00;2.20;;;;;;;7.63;73.02;97876.86;235478;1199;22533;-73
2021/11/04 19:38:12;;;;;;;6.20;2.40;;;;;;;7.58;73.03;97894.04;235692;1199;24054;-75
2021/11/04 19:43:15;;;;;;;2.50;1.90;;;;;;;7.56;73.03;97912.84;235794;1193;22459;-75
2021/11/04 19:48:18;;;;;;;2.90;2.00;;;;;;;7.52;72.95;97921.16;235996;1191;22450;-72
2021/11/04 19:53:23;;;;;;;2.80;2.00;;;;;;;7.49;72.85;97932.83;235815;1198;25319;-75
2021/11/04 19:58:26;;;;;;;4.70;2.40;;;;;;;7.46;72.70;97930.46;235990;1199;25237;-75
2021/11/04 20:03:31;;;;;;;3.90;2.30;;;;;;;7.40;72.79;97932.53;235772;1199;22409;-74
2021/11/04 20:08:37;;;;;;;4.10;2.70;;;;;;;7.34;72.67;97947.63;235656;1199;24178;-74
2021/11/04 20:13:41;;;;;;;2.80;1.80;;;;;;;7.28;72.58;97955.36;235637;1199;24585;-74
2021/11/04 20:18:44;;;;;;;3.00;1.80;;;;;;;7.26;72.19;97960.85;235838;1199;22471;-72
2021/11/04 20:23:48;;;;;;;3.00;1.40;;;;;;;7.26;72.10;97967.77;235797;1199;24037;-75
2021/11/04 20:28:51;;;;;;;2.70;1.80;;;;;;;7.24;71.79;97971.69;235837;1193;22426;-74
2021/11/04 20:33:57;;;;;;;1.90;1.70;;;;;;;7.21;71.43;97970.12;235806;1193;24059;-75
2021/11/04 20:39:00;;;;;;;2.30;1.50;;;;;;;7.21;71.05;97980.46;235853;1198;24058;-74
2021/11/04 20:44:04;;;;;;;2.10;1.50;;;;;;;7.17;71.22;97982.54;235827;1193;24057;-75
2021/11/04 20:49:14;;;;;;;2.70;1.70;;;;;;;7.11;71.03;97994.41;235816;1184;24082;-73
2021/11/04 20:54:22;;;;;;;2.00;1.50;;;;;;;7.08;70.78;98012.25;235785;1198;22426;-75
2021/11/04 20:59:27;;;;;;;2.70;1.90;;;;;;;7.06;70.85;98026.71;235752;1199;23679;-75
2021/11/04 21:04:30;;;;;;;3.00;1.80;;;;;;;7.04;70.98;98048.52;235454;1199;24056;-74
2021/11/04 21:09:39;;;;;;;2.30;1.50;;;;;;;7.07;70.65;98071.55;235868;1199;24114;-75
2021/11/04 21:14:41;;;;;;;3.00;1.90;;;;;;;7.17;71.09;98096.22;235894;1199;24076;-74
2021/11/04 21:19:44;;;;;;;2.90;1.80;;;;;;;7.27;71.01;98114.23;235656;1199;25931;-74
2021/11/04 21:24:50;;;;;;;3.20;2.00;;;;;;;7.36;70.65;98110.55;235906;1184;22525;-74
2021/11/04 21:29:53;;;;;;;3.30;1.90;;;;;;;7.42;70.27;98104.95;235972;1184;23405;-73
2021/11/04 21:34:56;;;;;;;3.40;1.90;;;;;;;7.43;69.97;98092.84;235801;1193;22440;-75
2021/11/04 21:39:59;;;;;;;4.30;2.10;;;;;;;7.43;70.01;98080.64;235901;1198;24126;-72
2021/11/04 21:45:09;;;;;;;3.80;2.30;;;;;;;7.44;69.43;98091.77;235828;1193;24085;-75
2021/11/04 21:50:12;;;;;;;3.30;2.20;;;;;;;7.47;69.19;98101.76;235853;1193;24980;-76
2021/11/04 21:55:17;;;;;;;3.50;2.00;;;;;;;7.48;69.31;98112.25;235536;1199;24430;-75
2021/11/04 22:00:23;;;;;;;3.70;1.80;;;;;;;7.47;69.18;98126.66;236048;1186;25282;-74
2021/11/04 22:05:27;;;;;;;3.10;1.60;;;;;;;7.44;69.12;98134.52;235902;1198;22456;-75
2021/11/04 22:10:30;;;;;;;2.60;2.10;;;;;;;7.40;69.09;98134.77;235803;1193;25256;-75
2021/11/04 22:15:34;;;;;;;3.40;1.50;;;;;;;7.38;69.03;98140.02;235906;1199;22406;-75
2021/11/04 22:20:36;;;;;;;3.70;1.80;;;;;;;7.34;68.82;98153.54;235590;1193;24053;-74
2021/11/04 22:25:48;;;;;;;2.70;2.00;;;;;;;7.29;68.75;98155.71;235828;1198;24187;-75
2021/11/04 22:31:02;;;;;;;2.60;1.80;;;;;;;7.23;68.76;98158.01;235832;1198;24512;-74
2021/11/04 22:36:06;;;;;;;2.30;2.00;;;;;;;7.15;68.92;98162.30;235990;1193;24085;-73
2021/11/04 22:41:11;;;;;;;3.80;1.70;;;;;;;7.05;68.75;98155.79;235848;1192;22456;-75
2021/11/04 22:46:13;;;;;;;1.90;1.70;;;;;;;6.97;68.88;98163.41;236041;1198;25183;-75
2021/11/04 22:51:17;;;;;;;1.70;1.50;;;;;;;6.89;68.88;98175.66;235783;1193;24043;-73
2021/11/04 22:56:19;;;;;;;1.60;1.30;;;;;;;6.82;69.00;98177.21;235766;1198;24051;-72
2021/11/04 23:01:22;;;;;;;2.50;1.70;;;;;;;6.76;69.11;98183.74;235720;1199;24022;-74
2021/11/04 23:06:25;;;;;;;1.90;1.30;;;;;;;6.69;69.40;98192.12;235661;1193;24494;-72
2021/11/04 23:11:27;;;;;;;1.40;1.30;;;;;;;6.62;69.37;98188.38;235766;1193;24047;-73
2021/11/04 23:16:31;;;;;;;2.10;1.40;;;;;;;6.60;69.67;98193.59;235795;1199;22421;-72
2021/11/04 23:21:34;;;;;;;1.60;1.50;;;;;;;6.57;69.58;98203.69;235300;1200;24016;-74
2021/11/04 23:26:37;;;;;;;2.00;1.40;;;;;;;6.53;69.55;98216.44;235826;1199;24168;-75
2021/11/04 23:31:44;;;;;;;1.40;1.30;;;;;;;6.49;69.66;98225.02;235719;1199;25197;-72
2021/11/04 23:36:47;;;;;;;2.00;1.50;;;;;;;6.44;69.80;98230.41;235875;1193;25281;-73
2021/11/04 23:41:49;;;;;;;1.50;1.30;;;;;;;6.37;70.13;98232.52;235849;1199;22858;-73
2021/11/04 23:46:52;;;;;;;2.30;1.50;;;;;;;6.31;70.26;98240.64;235759;1193;24110;-72
2021/11/04 23:51:55;;;;;;;1.80;1.60;;;;;;;6.26;70.53;98249.27;236067;1192;25168;-74
2021/11/04 23:56:57;;;;;;;2.60;1.60;;;;;;;6.24;70.57;98250.94;235762;1199;24405;-74
